createdAt,value
2018-09-05T00:02:09.420Z,101283.59
2018-09-05T00:04:36.605Z,101284.22
2018-09-05T00:07:03.973Z,101284.80
2018-09-05T00:09:31.276Z,101279.00
2018-09-05T00:11:58.555Z,101282.69
2018-09-05T00:14:25.806Z,101282.27
2018-09-05T00:17:03.046Z,101278.92
2018-09-05T00:19:30.554Z,101272.02
2018-09-05T00:21:57.853Z,101277.13
2018-09-05T00:24:25.033Z,101275.10
2018-09-05T00:26:52.263Z,101275.14
2018-09-05T00:29:19.513Z,101280.64
2018-09-05T00:31:46.830Z,101279.39
2018-09-05T00:34:14.033Z,101279.52
2018-09-05T00:36:41.293Z,101280.66
2018-09-05T00:39:09.759Z,101275.77
2018-09-05T00:41:37.351Z,101278.54
2018-09-05T00:44:04.720Z,101274.57
2018-09-05T00:46:32.267Z,101276.69
2018-09-05T00:48:59.922Z,101277.22
2018-09-05T00:51:27.136Z,101279.48
2018-09-05T00:53:54.597Z,101274.46
2018-09-05T00:56:21.925Z,101281.67
2018-09-05T00:58:49.135Z,101288.06
2018-09-05T01:01:16.270Z,101285.04
2018-09-05T01:03:43.500Z,101288.17
2018-09-05T01:06:11.186Z,101291.80
2018-09-05T01:08:39.164Z,101291.37
2018-09-05T01:11:06.437Z,101288.47
2018-09-05T01:13:33.635Z,101285.93
2018-09-05T01:16:00.885Z,101285.17
2018-09-05T01:18:28.198Z,101286.08
2018-09-05T01:20:55.549Z,101281.34
2018-09-05T01:23:22.758Z,101285.77
2018-09-05T01:25:50.003Z,101284.52
2018-09-05T01:28:17.319Z,101284.73
2018-09-05T01:30:44.532Z,101284.86
2018-09-05T01:33:11.849Z,101283.72
2018-09-05T01:35:39.330Z,101289.55
2018-09-05T01:38:06.540Z,101290.91
2018-09-05T01:40:33.822Z,101289.10
2018-09-05T01:43:01.133Z,101296.61
2018-09-05T01:45:28.453Z,101292.85
2018-09-05T01:47:55.679Z,101288.44
2018-09-05T01:50:28.437Z,101295.63
2018-09-05T01:52:55.665Z,101298.82
2018-09-05T01:55:22.957Z,101297.08
2018-09-05T01:57:50.265Z,101300.75
2018-09-05T02:00:23.171Z,101296.41
2018-09-05T02:02:50.453Z,101302.56
2018-09-05T02:05:17.692Z,101302.30
2018-09-05T02:07:44.951Z,101300.75
2018-09-05T02:10:12.212Z,101297.78
2018-09-05T02:12:39.818Z,101292.15
2018-09-05T02:15:07.118Z,101298.69
2018-09-05T02:17:34.296Z,101293.38
2018-09-05T02:20:07.754Z,101293.98
2018-09-05T02:22:35.120Z,101299.73
2018-09-05T02:25:02.346Z,101293.62
2018-09-05T02:27:29.595Z,101292.23
2018-09-05T02:29:56.839Z,101299.77
2018-09-05T02:32:24.056Z,101298.97
2018-09-05T02:34:51.356Z,101301.09
2018-09-05T02:37:18.826Z,101303.41
2018-09-05T02:39:45.958Z,101302.59
2018-09-05T02:42:13.121Z,101304.91
2018-09-05T02:44:40.699Z,101299.08
2018-09-05T02:47:08.196Z,101297.91
2018-09-05T02:49:35.421Z,101294.80
2018-09-05T02:52:02.605Z,101294.41
2018-09-05T02:54:29.768Z,101297.49
2018-09-05T02:56:57.020Z,101299.74
2018-09-05T02:59:24.303Z,101293.66
2018-09-05T03:01:51.487Z,101295.06
2018-09-05T03:04:18.708Z,101299.92
2018-09-05T03:06:45.869Z,101303.88
2018-09-05T03:09:13.069Z,101301.23
2018-09-05T03:11:40.899Z,101305.14
2018-09-05T03:14:08.097Z,101311.73
2018-09-05T03:16:35.317Z,101309.09
2018-09-05T03:19:04.111Z,101308.63
2018-09-05T03:21:29.916Z,101312.48
2018-09-05T03:23:57.188Z,101313.93
2018-09-05T03:26:24.408Z,101315.88
2018-09-05T03:28:51.592Z,101308.41
2018-09-05T03:31:18.753Z,101308.33
2018-09-05T03:33:46.084Z,101314.02
2018-09-05T03:36:13.403Z,101314.11
2018-09-05T03:38:41.701Z,101310.60
2018-09-05T03:41:09.099Z,101316.34
2018-09-05T03:43:36.269Z,101315.49
2018-09-05T03:46:03.491Z,101317.70
2018-09-05T03:48:30.777Z,101321.14
2018-09-05T03:50:58.232Z,101322.62
2018-09-05T03:53:26.447Z,101315.60
2018-09-05T03:55:54.456Z,101321.33
2018-09-05T03:58:21.740Z,101326.56
2018-09-05T04:00:49.039Z,101333.27
2018-09-05T04:03:16.232Z,101327.13
2018-09-05T04:05:43.340Z,101330.69
2018-09-05T04:08:11.177Z,101331.21
2018-09-05T04:10:38.851Z,101334.69
2018-09-05T04:13:06.144Z,101335.30
2018-09-05T04:15:33.303Z,101333.30
2018-09-05T04:18:00.518Z,101333.61
2018-09-05T04:20:27.710Z,101336.59
2018-09-05T04:22:54.937Z,101341.06
2018-09-05T04:25:22.300Z,101341.81
2018-09-05T04:27:49.481Z,101338.14
2018-09-05T04:30:16.695Z,101332.52
2018-09-05T04:32:43.887Z,101334.25
2018-09-05T04:35:11.326Z,101339.28
2018-09-05T04:37:38.913Z,101335.99
2018-09-05T04:40:06.288Z,101340.28
2018-09-05T04:42:35.533Z,101341.92
2018-09-05T04:45:02.870Z,101346.28
2018-09-05T04:47:30.163Z,101346.18
2018-09-05T04:49:57.546Z,101356.56
2018-09-05T04:52:24.784Z,101356.11
2018-09-05T04:54:52.037Z,101356.69
2018-09-05T04:57:19.179Z,101365.61
2018-09-05T04:59:46.364Z,101358.42
2018-09-05T05:02:13.723Z,101364.86
2018-09-05T05:04:41.060Z,101366.23
2018-09-05T05:07:08.167Z,101367.47
2018-09-05T05:09:35.589Z,101367.52
2018-09-05T05:12:02.808Z,101367.59
2018-09-05T05:14:30.034Z,101374.86
2018-09-05T05:16:57.497Z,101375.48
2018-09-05T05:19:24.701Z,101369.42
2018-09-05T05:21:58.633Z,101374.36
2018-09-05T05:24:25.881Z,101378.56
2018-09-05T05:26:53.220Z,101374.77
2018-09-05T05:29:20.440Z,101376.47
2018-09-05T05:31:47.808Z,101380.65
2018-09-05T05:34:15.422Z,101382.84
2018-09-05T05:36:42.691Z,101384.55
2018-09-05T05:39:11.449Z,101383.00
2018-09-05T05:41:39.255Z,101384.43
2018-09-05T05:44:06.525Z,101387.75
2018-09-05T05:46:34.013Z,101392.56
2018-09-05T05:49:01.292Z,101394.23
2018-09-05T05:51:28.730Z,101394.33
2018-09-05T05:53:55.944Z,101396.38
2018-09-05T05:56:23.107Z,101399.50
2018-09-05T05:58:50.314Z,101397.02
2018-09-05T06:01:18.813Z,101403.01
2018-09-05T06:03:46.040Z,101396.88
2018-09-05T06:06:13.346Z,101391.94
2018-09-05T06:08:40.672Z,101397.89
2018-09-05T06:11:08.183Z,101398.84
2018-09-05T06:13:35.450Z,101406.63
2018-09-05T06:16:02.943Z,101410.75
2018-09-05T06:18:30.124Z,101415.84
2018-09-05T06:20:57.379Z,101416.94
2018-09-05T06:23:24.546Z,101419.08
2018-09-05T06:25:51.876Z,101418.67
2018-09-05T06:28:19.363Z,101417.23
2018-09-05T06:30:46.635Z,101417.41
2018-09-05T06:33:13.706Z,101422.86
2018-09-05T06:35:41.047Z,101424.48
2018-09-05T06:38:09.081Z,101429.61
2018-09-05T06:40:36.392Z,101430.94
2018-09-05T06:43:03.644Z,101429.06
2018-09-05T06:45:30.942Z,101424.92
2018-09-05T06:47:58.298Z,101426.37
2018-09-05T06:50:25.637Z,101427.73
2018-09-05T06:52:53.036Z,101425.53
2018-09-05T06:55:20.204Z,101430.87
2018-09-05T06:57:47.649Z,101428.57
2018-09-05T07:00:16.839Z,101424.00
2018-09-05T07:02:44.059Z,101426.25
2018-09-05T07:05:50.808Z,101429.09
2018-09-05T07:08:18.004Z,101432.63
2018-09-05T07:10:45.208Z,101433.81
2018-09-05T07:13:12.420Z,101436.41
2018-09-05T07:15:39.735Z,101428.81
2018-09-05T07:18:06.974Z,101435.72
2018-09-05T07:20:34.414Z,101431.02
2018-09-05T07:23:01.504Z,101435.77
2018-09-05T07:25:28.709Z,101430.27
2018-09-05T07:27:56.027Z,101426.33
2018-09-05T07:30:23.289Z,101428.48
2018-09-05T07:32:50.605Z,101437.34
2018-09-05T07:35:17.936Z,101434.22
2018-09-05T07:37:45.131Z,101433.47
2018-09-05T07:40:12.272Z,101436.17
2018-09-05T07:42:41.761Z,101429.48
2018-09-05T07:45:09.073Z,101435.36
2018-09-05T07:47:36.659Z,101437.89
2018-09-05T07:50:03.944Z,101434.26
2018-09-05T07:52:31.408Z,101438.48
2018-09-05T07:54:58.961Z,101438.92
2018-09-05T07:57:27.585Z,101441.23
2018-09-05T07:59:54.809Z,101432.73
2018-09-05T08:02:22.581Z,101444.44
2018-09-05T08:04:49.846Z,101441.09
2018-09-05T08:07:17.313Z,101436.91
2018-09-05T08:09:44.509Z,101431.27
2018-09-05T08:12:12.021Z,101427.30
2018-09-05T08:14:39.758Z,101432.14
2018-09-05T08:17:07.129Z,101431.73
2018-09-05T08:19:34.562Z,101437.41
2018-09-05T08:22:01.765Z,101432.47
2018-09-05T08:24:29.583Z,101431.93
2018-09-05T08:26:57.216Z,101440.45
2018-09-05T08:29:24.391Z,101435.95
2018-09-05T08:31:51.689Z,101442.25
2018-09-05T08:34:19.305Z,101440.91
2018-09-05T08:36:46.780Z,101439.38
2018-09-05T08:39:35.156Z,101441.06
2018-09-05T08:42:02.703Z,101437.06
2018-09-05T08:44:30.030Z,101436.67
2018-09-05T08:46:57.322Z,101445.53
2018-09-05T08:49:24.584Z,101433.82
2018-09-05T08:51:51.752Z,101428.85
2018-09-05T08:54:19.055Z,101436.27
2018-09-05T08:56:46.212Z,101432.23
2018-09-05T08:59:13.432Z,101429.23
2018-09-05T09:01:42.174Z,101429.87
2018-09-05T09:04:09.923Z,101440.87
2018-09-05T09:06:37.323Z,101435.73
2018-09-05T09:09:07.423Z,101434.61
2018-09-05T09:11:34.644Z,101429.63
2018-09-05T09:14:02.033Z,101440.31
2018-09-05T09:16:29.535Z,101433.55
2018-09-05T09:18:56.862Z,101433.37
2018-09-05T09:21:23.972Z,101437.47
2018-09-05T09:23:51.137Z,101432.84
2018-09-05T09:26:18.367Z,101435.99
2018-09-05T09:31:11.335Z,101425.49
2018-09-05T09:33:38.440Z,101430.02
2018-09-05T09:36:05.595Z,101424.72
2018-09-05T09:38:32.873Z,101428.20
2018-09-05T09:40:59.995Z,101420.83
2018-09-05T09:43:27.274Z,101409.93
2018-09-05T09:45:54.527Z,101415.59
2018-09-05T09:48:21.644Z,101405.35
2018-09-05T09:50:48.793Z,101407.88
2018-09-05T09:53:15.948Z,101413.29
2018-09-05T09:55:43.044Z,101398.52
2018-09-05T09:58:10.148Z,101394.97
2018-09-05T10:01:45.373Z,101399.39
2018-09-05T10:04:18.155Z,101392.93
2018-09-05T10:06:49.929Z,101393.48
2018-09-05T10:09:23.040Z,101387.67
2018-09-05T10:11:55.917Z,101387.41
2018-09-05T10:14:28.768Z,101387.09
2018-09-05T10:17:01.683Z,101389.83
2018-09-05T10:19:28.799Z,101393.89
2018-09-05T10:21:56.603Z,101387.00
2018-09-05T10:24:24.065Z,101387.23
2018-09-05T10:26:52.090Z,101389.86
2018-09-05T10:29:19.493Z,101384.12
2018-09-05T10:31:47.319Z,101385.78
2018-09-05T10:34:14.424Z,101387.91
2018-09-05T10:36:42.384Z,101386.54
2018-09-05T10:39:10.633Z,101382.80
2018-09-05T10:41:37.879Z,101373.21
2018-09-05T10:44:05.113Z,101376.74
2018-09-05T10:46:32.400Z,101365.91
2018-09-05T10:48:59.500Z,101377.46
2018-09-05T10:51:32.303Z,101370.32
2018-09-05T10:53:59.451Z,101364.03
2018-09-05T10:56:28.888Z,101365.06
2018-09-05T10:58:56.137Z,101368.50
2018-09-05T11:01:23.283Z,101369.11
2018-09-05T11:03:50.390Z,101365.26
2018-09-05T11:06:17.548Z,101354.91
2018-09-05T11:08:44.887Z,101364.20
2018-09-05T11:11:12.081Z,101354.41
2018-09-05T11:13:39.314Z,101351.67
2018-09-05T11:16:06.460Z,101354.61
2018-09-05T11:18:33.641Z,101344.33
2018-09-05T11:21:01.056Z,101344.86
2018-09-05T11:23:30.034Z,101332.25
2018-09-05T11:25:57.163Z,101343.48
2018-09-05T11:28:24.388Z,101338.47
2018-09-05T11:30:51.520Z,101343.66
2018-09-05T11:33:18.619Z,101332.37
2018-09-05T11:35:45.772Z,101340.88
2018-09-05T11:38:12.867Z,101328.67
2018-09-05T11:40:40.137Z,101328.77
2018-09-05T11:43:07.371Z,101328.18
2018-09-05T11:45:34.511Z,101325.46
2018-09-05T11:48:01.687Z,101337.84
2018-09-05T11:50:28.841Z,101331.58
2018-09-05T11:52:55.936Z,101335.48
2018-09-05T11:55:23.080Z,101329.48
2018-09-05T11:57:50.500Z,101336.14
2018-09-05T12:00:17.628Z,101332.09
2018-09-05T12:02:44.756Z,101331.66
2018-09-05T12:05:11.925Z,101323.22
2018-09-05T12:07:39.031Z,101320.04
2018-09-05T12:10:06.235Z,101317.67
2018-09-05T12:12:33.509Z,101319.13
2018-09-05T12:15:00.667Z,101322.20
2018-09-05T12:17:28.355Z,101318.42
2018-09-05T12:19:55.732Z,101319.30
2018-09-05T12:22:22.944Z,101318.00
2018-09-05T12:24:50.089Z,101311.86
2018-09-05T12:27:17.268Z,101315.55
2018-09-05T12:29:44.373Z,101308.92
2018-09-05T12:32:11.519Z,101312.29
2018-09-05T12:34:38.752Z,101304.87
2018-09-05T12:37:05.881Z,101308.17
2018-09-05T12:39:33.026Z,101303.41
2018-09-05T12:42:00.197Z,101297.19
2018-09-05T12:44:27.316Z,101302.52
2018-09-05T12:46:54.513Z,101300.80
2018-09-05T12:49:21.684Z,101297.02
2018-09-05T12:51:48.804Z,101297.75
2018-09-05T12:54:15.935Z,101293.63
2018-09-05T12:56:43.097Z,101295.70
2018-09-05T12:59:10.304Z,101291.17
2018-09-05T13:01:37.516Z,101296.89
2018-09-05T13:04:04.715Z,101292.58
2018-09-05T13:06:31.847Z,101294.63
2018-09-05T13:08:59.367Z,101284.58
2018-09-05T13:11:26.780Z,101281.11
2018-09-05T13:13:54.039Z,101277.38
2018-09-05T13:16:21.316Z,101279.71
2018-09-05T13:18:48.748Z,101275.70
2018-09-05T13:21:15.977Z,101271.48
2018-09-05T13:23:43.249Z,101269.72
2018-09-05T13:26:10.668Z,101271.69
2018-09-05T13:28:37.812Z,101269.23
2018-09-05T13:31:05.051Z,101271.48
2018-09-05T13:33:37.962Z,101263.17
2018-09-05T13:36:10.973Z,101267.02
2018-09-05T13:38:38.158Z,101266.50
2018-09-05T13:41:05.300Z,101261.67
2018-09-05T13:43:38.353Z,101261.29
2018-09-05T13:46:05.558Z,101263.89
2018-09-05T13:48:32.776Z,101261.06
2018-09-05T13:51:00.073Z,101259.83
2018-09-05T13:53:27.237Z,101262.88
2018-09-05T13:56:01.672Z,101260.45
2018-09-05T13:58:29.555Z,101257.98
2018-09-05T14:00:56.663Z,101262.72
2018-09-05T14:03:23.857Z,101256.88
2018-09-05T14:05:51.005Z,101258.23
2018-09-05T14:08:19.162Z,101257.17
2018-09-05T14:10:46.394Z,101253.30
2018-09-05T14:13:13.542Z,101251.19
2018-09-05T14:15:40.665Z,101249.27
2018-09-05T14:18:07.835Z,101240.94
2018-09-05T14:20:34.999Z,101248.19
2018-09-05T14:23:02.167Z,101242.38
2018-09-05T14:25:29.333Z,101246.23
2018-09-05T14:27:56.428Z,101240.05
2018-09-05T14:30:23.538Z,101242.95
2018-09-05T14:32:50.780Z,101246.38
2018-09-05T14:35:18.016Z,101242.33
2018-09-05T14:37:45.313Z,101241.88
2018-09-05T14:40:12.496Z,101246.59
2018-09-05T14:42:39.661Z,101238.50
2018-09-05T14:45:06.820Z,101245.23
2018-09-05T14:47:34.045Z,101237.83
2018-09-05T14:50:01.197Z,101239.29
2018-09-05T14:52:28.383Z,101237.28
2018-09-05T14:54:55.561Z,101239.77
2018-09-05T14:57:22.706Z,101239.23
2018-09-05T14:59:50.477Z,101239.98
2018-09-05T15:02:18.816Z,101238.31
2018-09-05T15:04:46.323Z,101233.23
2018-09-05T15:07:13.447Z,101227.25
2018-09-05T15:09:40.621Z,101225.48
2018-09-05T15:12:07.749Z,101231.09
2018-09-05T15:14:34.870Z,101228.08
2018-09-05T15:17:02.033Z,101222.69
2018-09-05T15:19:29.201Z,101225.30
2018-09-05T15:21:56.364Z,101222.72
2018-09-05T15:24:23.525Z,101225.16
2018-09-05T15:26:50.639Z,101222.53
2018-09-05T15:29:17.756Z,101218.68
2018-09-05T15:31:44.934Z,101213.03
2018-09-05T15:34:12.057Z,101216.02
2018-09-05T15:36:39.186Z,101215.16
2018-09-05T15:39:08.082Z,101217.05
2018-09-05T15:41:35.447Z,101212.52
2018-09-05T15:44:02.572Z,101211.81
2018-09-05T15:46:29.745Z,101212.84
2018-09-05T15:48:56.964Z,101210.77
2018-09-05T15:51:24.077Z,101211.62
2018-09-05T15:53:51.283Z,101211.06
2018-09-05T15:56:19.399Z,101209.39
2018-09-05T15:58:46.507Z,101212.73
2018-09-05T16:01:13.745Z,101208.52
2018-09-05T16:03:40.918Z,101210.02
2018-09-05T16:06:08.007Z,101208.72
2018-09-05T16:08:35.372Z,101203.42
2018-09-05T16:11:02.605Z,101192.73
2018-09-05T16:13:29.831Z,101197.00
2018-09-05T16:15:56.988Z,101197.09
2018-09-05T16:18:24.116Z,101193.42
2018-09-05T16:20:51.296Z,101199.63
2018-09-05T16:23:18.484Z,101194.53
2018-09-05T16:25:45.667Z,101198.36
2018-09-05T16:28:12.765Z,101196.95
2018-09-05T16:30:39.958Z,101196.44
2018-09-05T16:33:07.073Z,101200.44
2018-09-05T16:35:34.222Z,101194.55
2018-09-05T16:38:01.455Z,101190.34
2018-09-05T16:40:28.571Z,101191.38
2018-09-05T16:42:55.688Z,101188.91
2018-09-05T16:45:22.895Z,101192.04
2018-09-05T16:47:50.060Z,101193.53
2018-09-05T16:50:17.249Z,101197.62
2018-09-05T16:52:44.411Z,101194.77
2018-09-05T16:55:11.612Z,101196.20
2018-09-05T16:57:38.728Z,101190.12
2018-09-05T17:00:06.110Z,101192.13
2018-09-05T17:02:33.313Z,101197.34
2018-09-05T17:05:00.455Z,101192.30
2018-09-05T17:07:27.634Z,101197.67
2018-09-05T17:09:54.787Z,101199.63
2018-09-05T17:12:21.892Z,101197.57
2018-09-05T17:14:49.187Z,101201.42
2018-09-05T17:17:16.300Z,101195.23
2018-09-05T17:19:43.412Z,101203.67
2018-09-05T17:22:10.632Z,101202.42
2018-09-05T17:24:37.821Z,101198.78
2018-09-05T17:27:05.049Z,101200.48
2018-09-05T17:29:32.213Z,101192.37
2018-09-05T17:31:59.325Z,101198.94
2018-09-05T17:34:26.484Z,101194.23
2018-09-05T17:36:53.651Z,101198.11
2018-09-05T17:39:20.870Z,101197.96
2018-09-05T17:41:47.980Z,101205.95
2018-09-05T17:44:18.965Z,101204.45
2018-09-05T17:46:46.076Z,101214.08
2018-09-05T17:49:13.197Z,101216.49
2018-09-05T17:51:40.456Z,101216.78
2018-09-05T17:54:07.607Z,101211.53
2018-09-05T17:56:34.896Z,101210.91
2018-09-05T17:59:01.991Z,101211.09
2018-09-05T18:01:39.921Z,101208.93
2018-09-05T18:04:07.070Z,101210.56
2018-09-05T18:06:34.253Z,101207.28
2018-09-05T18:09:01.375Z,101210.05
2018-09-05T18:11:28.612Z,101211.48
2018-09-05T18:13:55.755Z,101214.13
2018-09-05T18:16:22.963Z,101214.14
2018-09-05T18:18:50.132Z,101215.88
2018-09-05T18:21:17.264Z,101208.81
2018-09-05T18:23:45.054Z,101206.94
2018-09-05T18:26:12.230Z,101207.73
2018-09-05T18:28:39.436Z,101210.00
2018-09-05T18:31:06.568Z,101212.11
2018-09-05T18:33:33.734Z,101214.20
2018-09-05T18:36:01.520Z,101211.92
2018-09-05T18:38:28.653Z,101208.16
2018-09-05T18:40:55.933Z,101209.70
2018-09-05T18:43:23.049Z,101206.13
2018-09-05T18:45:50.167Z,101204.23
2018-09-05T18:48:17.347Z,101205.77
2018-09-05T18:50:44.686Z,101203.95
2018-09-05T18:53:12.911Z,101206.78
2018-09-05T18:55:41.511Z,101204.86
2018-09-05T18:58:08.741Z,101201.23
2018-09-05T19:00:36.335Z,101206.45
2018-09-05T19:03:03.476Z,101209.66
2018-09-05T19:05:30.712Z,101206.69
2018-09-05T19:07:57.821Z,101205.95
2018-09-05T19:10:24.979Z,101206.81
2018-09-05T19:12:52.862Z,101209.08
2018-09-05T19:15:20.595Z,101211.34
2018-09-05T19:17:48.214Z,101213.61
2018-09-05T19:20:15.436Z,101210.91
2018-09-05T19:22:42.709Z,101209.72
2018-09-05T19:25:09.903Z,101211.05
2018-09-05T19:27:37.493Z,101216.55
2018-09-05T19:30:05.568Z,101213.31
2018-09-05T19:32:35.135Z,101212.78
2018-09-05T19:35:02.303Z,101218.64
2018-09-05T19:37:29.486Z,101220.47
2018-09-05T19:39:56.703Z,101222.34
2018-09-05T19:42:24.052Z,101209.95
2018-09-05T19:44:51.132Z,101217.64
2018-09-05T19:47:18.351Z,101215.98
2018-09-05T19:49:45.693Z,101220.20
2018-09-05T19:52:13.513Z,101217.70
2018-09-05T19:54:40.834Z,101219.23
2018-09-05T19:57:08.015Z,101217.50
2018-09-05T19:59:35.130Z,101221.00
2018-09-05T20:02:02.470Z,101221.76
2018-09-05T20:04:30.384Z,101222.89
2018-09-05T20:06:57.581Z,101219.34
2018-09-05T20:09:25.853Z,101221.23
2018-09-05T20:11:52.973Z,101229.63
2018-09-05T20:14:20.211Z,101231.98
2018-09-05T20:16:47.905Z,101229.02
2018-09-05T20:19:15.361Z,101228.84
2018-09-05T20:21:42.463Z,101228.55
2018-09-05T20:24:09.681Z,101227.77
2018-09-05T20:26:36.851Z,101232.64
2018-09-05T20:29:03.963Z,101227.77
2018-09-05T20:31:31.228Z,101231.77
2018-09-05T20:33:58.397Z,101228.10
2018-09-05T20:36:25.624Z,101230.11
2018-09-05T20:38:52.797Z,101229.71
2018-09-05T20:41:33.784Z,101233.48
2018-09-05T20:44:00.996Z,101231.28
2018-09-05T20:46:28.204Z,101229.48
2018-09-05T20:48:55.384Z,101234.70
2018-09-05T20:51:22.578Z,101231.44
2018-09-05T20:53:49.772Z,101228.28
2018-09-05T20:56:16.981Z,101226.95
2018-09-05T20:58:44.227Z,101223.09
2018-09-05T21:01:11.385Z,101224.50
2018-09-05T21:03:38.535Z,101220.94
2018-09-05T21:06:06.200Z,101219.61
2018-09-05T21:08:33.399Z,101223.70
2018-09-05T21:11:02.773Z,101216.87
2018-09-05T21:13:36.651Z,101224.19
2018-09-05T21:16:11.165Z,101219.69
2018-09-05T21:18:38.572Z,101225.44
2018-09-05T21:21:06.212Z,101222.33
2018-09-05T21:23:33.404Z,101215.56
2018-09-05T21:26:00.650Z,101218.50
2018-09-05T21:28:27.851Z,101220.05
2018-09-05T21:30:55.163Z,101217.73
2018-09-05T21:33:22.400Z,101222.53
2018-09-05T21:35:49.493Z,101218.14
2018-09-05T21:38:16.616Z,101218.60
2018-09-05T21:40:43.825Z,101219.81
2018-09-05T21:43:11.067Z,101223.67
2018-09-05T21:45:38.299Z,101222.58
2018-09-05T21:48:05.489Z,101223.31
2018-09-05T21:50:32.624Z,101217.75
2018-09-05T21:52:59.871Z,101219.77
2018-09-05T21:55:27.111Z,101221.11
2018-09-05T21:57:54.316Z,101221.31
2018-09-05T22:00:21.428Z,101228.54
2018-09-05T22:02:48.766Z,101225.62
2018-09-05T22:05:15.968Z,101224.81
2018-09-05T22:07:43.185Z,101226.31
2018-09-05T22:10:10.401Z,101232.82
2018-09-05T22:12:37.500Z,101230.77
2018-09-05T22:15:04.932Z,101233.95
2018-09-05T22:17:32.144Z,101228.97
2018-09-05T22:19:59.328Z,101224.38
2018-09-05T22:22:26.483Z,101224.60
2018-09-05T22:24:53.705Z,101224.39
2018-09-05T22:27:20.831Z,101224.19
2018-09-05T22:29:47.987Z,101223.37
2018-09-05T22:32:15.241Z,101222.27
2018-09-05T22:34:42.424Z,101220.73
2018-09-05T22:37:09.535Z,101223.43
2018-09-05T22:39:36.769Z,101219.97
2018-09-05T22:42:04.016Z,101218.83
2018-09-05T22:44:42.825Z,101225.58
2018-09-05T22:47:21.556Z,101218.16
2018-09-05T22:51:03.587Z,101220.00
2018-09-05T22:54:47.275Z,101220.45
2018-09-05T22:58:25.272Z,101218.31
2018-09-05T23:01:04.292Z,101212.14
2018-09-05T23:03:59.402Z,101214.84
2018-09-05T23:06:38.883Z,101213.52
2018-09-05T23:09:07.719Z,101210.09
2018-09-05T23:11:59.660Z,101210.92
2018-09-05T23:15:41.979Z,101205.70
2018-09-05T23:20:18.559Z,101202.59
2018-09-05T23:22:57.209Z,101198.25
2018-09-05T23:25:24.396Z,101197.08
2018-09-05T23:27:51.486Z,101193.65
2018-09-05T23:30:18.786Z,101200.38
2018-09-05T23:32:45.921Z,101190.02
2018-09-05T23:35:13.076Z,101188.79
2018-09-05T23:37:40.307Z,101188.38
2018-09-05T23:40:07.508Z,101184.05
2018-09-05T23:42:34.763Z,101180.20
2018-09-05T23:45:01.946Z,101184.70
2018-09-05T23:47:29.094Z,101178.93
2018-09-05T23:49:56.260Z,101181.33
2018-09-05T23:52:23.431Z,101182.89
2018-09-05T23:54:50.649Z,101187.23
2018-09-05T23:57:17.761Z,101183.03
2018-09-05T23:59:44.913Z,101177.31
